EZY69LE LDDU-EGGD
Flight info
| Callsign | EZY69LE |
|---|---|
| Flight time | N/A |
| Altitude | 34000 |
| Route | AMUGO DCT UVODI DCT SAL DCT ROTAR DCT BORMI DCT RESIA DCT ELMUR DCT RIPUS DCT DITON DCT HOC DCT LUL DCT RLP DCT ROTSI DCT KOTUN DCT NINAL DCT KESAX DCT KUNAV T421 ICTAM |
| Aircraft | A320/M-SDE2E3FGHIJ1RWXYZ/LB1 |
Departure
| Time | N/A |
|---|---|
| Airport | Dubrovnik Ruđer Bošković Airport (LDDU) |
Arrival
| Time | 2026-05-01 09:00 |
|---|---|
| Airport | Bristol Airport (EGGD) |
| Time | Latitude | Longitude | Altitude | Speed | Heading |
|---|---|---|---|---|---|
| 2026-05-01 07:23 | 47.07309 | 9.05048 | 34273 ft | 424 kts | 315° |
| 2026-05-01 07:24 | 47.13121 | 8.95151 | 34286 ft | 425 kts | 315° |
| 2026-05-01 07:24 | 47.16391 | 8.87863 | 34303 ft | 434 kts | 297° |
| 2026-05-01 07:25 | 47.18554 | 8.79549 | 34313 ft | 436 kts | 294° |
| 2026-05-01 07:25 | 47.20674 | 8.71187 | 34323 ft | 436 kts | 294° |
| 2026-05-01 07:26 | 47.22795 | 8.62820 | 34332 ft | 436 kts | 294° |
| 2026-05-01 07:26 | 47.24911 | 8.54452 | 34330 ft | 436 kts | 294° |
| 2026-05-01 07:27 | 47.27023 | 8.46075 | 34326 ft | 436 kts | 294° |
| 2026-05-01 07:27 | 47.29126 | 8.37693 | 34328 ft | 437 kts | 293° |
| 2026-05-01 07:28 | 47.31247 | 8.29233 | 34327 ft | 437 kts | 293° |
| 2026-05-01 07:28 | 47.33348 | 8.20834 | 34323 ft | 437 kts | 293° |
| 2026-05-01 07:29 | 47.35439 | 8.12407 | 34325 ft | 437 kts | 292° |
| 2026-05-01 07:29 | 47.37523 | 8.03970 | 34318 ft | 437 kts | 292° |
| 2026-05-01 07:30 | 47.39597 | 7.95530 | 34318 ft | 438 kts | 292° |
| 2026-05-01 07:30 | 47.41683 | 7.87024 | 34315 ft | 438 kts | 292° |
| 2026-05-01 07:31 | 47.43719 | 7.78653 | 34313 ft | 438 kts | 292° |
| 2026-05-01 07:32 | 47.48243 | 7.57124 | 34313 ft | 439 kts | 285° |
| 2026-05-01 07:33 | 47.50427 | 7.43975 | 34312 ft | 439 kts | 285° |
| 2026-05-01 07:33 | 47.52613 | 7.30812 | 34311 ft | 440 kts | 285° |
| 2026-05-01 07:34 | 47.54784 | 7.17617 | 34308 ft | 440 kts | 285° |
| 2026-05-01 07:35 | 47.56233 | 7.08756 | 34307 ft | 440 kts | 284° |
| 2026-05-01 07:35 | 47.57667 | 6.99939 | 34310 ft | 440 kts | 284° |
| 2026-05-01 07:36 | 47.59094 | 6.91114 | 34314 ft | 440 kts | 284° |
| 2026-05-01 07:36 | 47.60512 | 6.82280 | 34310 ft | 441 kts | 284° |
| 2026-05-01 07:37 | 47.62632 | 6.69029 | 34303 ft | 440 kts | 284° |
| 2026-05-01 07:37 | 47.64041 | 6.60130 | 34302 ft | 441 kts | 283° |
| 2026-05-01 07:38 | 47.65433 | 6.51271 | 34263 ft | 441 kts | 283° |
| 2026-05-01 07:39 | 47.67510 | 6.37982 | 34261 ft | 441 kts | 283° |
| 2026-05-01 07:39 | 47.69703 | 6.24717 | 34259 ft | 441 kts | 287° |
| 2026-05-01 07:40 | 47.71576 | 6.16047 | 34262 ft | 441 kts | 289° |
| 2026-05-01 07:40 | 47.73534 | 6.07408 | 34257 ft | 441 kts | 288° |
| 2026-05-01 07:41 | 47.75409 | 5.98735 | 34258 ft | 441 kts | 287° |
| 2026-05-01 07:42 | 47.78131 | 5.85589 | 34259 ft | 442 kts | 287° |
| 2026-05-01 07:42 | 47.79941 | 5.76849 | 34257 ft | 442 kts | 287° |
| 2026-05-01 07:43 | 47.81766 | 5.68104 | 34263 ft | 443 kts | 287° |
| 2026-05-01 07:43 | 47.84491 | 5.54971 | 34265 ft | 443 kts | 286° |
| 2026-05-01 07:44 | 47.88099 | 5.37400 | 34258 ft | 444 kts | 286° |
| 2026-05-01 07:45 | 47.89972 | 5.28637 | 34256 ft | 445 kts | 292° |
| 2026-05-01 07:45 | 47.93169 | 5.20772 | 34252 ft | 445 kts | 311° |
| 2026-05-01 07:46 | 47.97333 | 5.13930 | 34251 ft | 446 kts | 312° |
| 2026-05-01 07:47 | 48.02906 | 5.04733 | 34248 ft | 447 kts | 312° |
| 2026-05-01 07:47 | 48.07091 | 4.97779 | 34248 ft | 447 kts | 312° |
| 2026-05-01 07:48 | 48.13339 | 4.87394 | 34249 ft | 448 kts | 312° |
| 2026-05-01 07:48 | 48.17508 | 4.80454 | 34251 ft | 448 kts | 311° |
| 2026-05-01 07:49 | 48.23754 | 4.70016 | 34250 ft | 449 kts | 311° |
| 2026-05-01 07:50 | 48.27908 | 4.63034 | 34250 ft | 449 kts | 311° |
| 2026-05-01 07:50 | 48.34143 | 4.52520 | 34249 ft | 449 kts | 311° |
| 2026-05-01 07:51 | 48.38306 | 4.45500 | 34244 ft | 450 kts | 311° |
| 2026-05-01 07:52 | 48.44564 | 4.34895 | 34244 ft | 450 kts | 311° |
| 2026-05-01 07:52 | 48.48711 | 4.27831 | 34245 ft | 450 kts | 311° |
| 2026-05-01 07:53 | 48.54937 | 4.17225 | 34261 ft | 450 kts | 311° |
| 2026-05-01 07:53 | 48.59085 | 4.10130 | 34260 ft | 451 kts | 311° |
| 2026-05-01 07:55 | 48.69432 | 3.92322 | 34261 ft | 451 kts | 310° |
| 2026-05-01 07:56 | 48.80325 | 3.75158 | 34263 ft | 451 kts | 316° |
| 2026-05-01 07:57 | 48.87146 | 3.65293 | 34262 ft | 451 kts | 315° |
| 2026-05-01 07:58 | 48.96073 | 3.51880 | 34264 ft | 451 kts | 314° |
| 2026-05-01 07:59 | 49.04986 | 3.38410 | 34256 ft | 451 kts | 314° |
| 2026-05-01 08:00 | 49.18375 | 3.18104 | 34258 ft | 451 kts | 314° |
| 2026-05-01 08:01 | 49.27247 | 3.04552 | 34249 ft | 451 kts | 314° |
| 2026-05-01 08:02 | 49.33888 | 2.94360 | 34250 ft | 451 kts | 314° |
| 2026-05-01 08:03 | 49.40525 | 2.84130 | 34245 ft | 450 kts | 314° |
| 2026-05-01 08:03 | 49.47173 | 2.73833 | 34246 ft | 451 kts | 314° |
| 2026-05-01 08:04 | 49.56003 | 2.60125 | 34248 ft | 450 kts | 313° |
| 2026-05-01 08:05 | 49.62536 | 2.49733 | 34244 ft | 450 kts | 310° |
| 2026-05-01 08:06 | 49.68566 | 2.38658 | 34249 ft | 449 kts | 307° |
| 2026-05-01 08:07 | 49.76554 | 2.23813 | 34242 ft | 449 kts | 308° |
| 2026-05-01 08:08 | 49.82652 | 2.12713 | 34239 ft | 449 kts | 308° |
| 2026-05-01 08:09 | 49.90674 | 1.97915 | 34233 ft | 449 kts | 308° |
| 2026-05-01 08:09 | 49.94671 | 1.90525 | 34234 ft | 449 kts | 308° |
| 2026-05-01 08:10 | 50.02680 | 1.75629 | 34231 ft | 449 kts | 308° |
| 2026-05-01 08:11 | 50.11330 | 1.61617 | 34224 ft | 451 kts | 317° |
| 2026-05-01 08:12 | 50.18438 | 1.52006 | 34229 ft | 451 kts | 317° |
| 2026-05-01 08:13 | 50.25562 | 1.42293 | 34230 ft | 451 kts | 317° |
| 2026-05-01 08:13 | 50.32645 | 1.32585 | 34225 ft | 452 kts | 317° |
| 2026-05-01 08:14 | 50.37363 | 1.26089 | 34222 ft | 452 kts | 316° |
| 2026-05-01 08:14 | 50.42087 | 1.19581 | 34225 ft | 452 kts | 316° |
| 2026-05-01 08:15 | 50.48372 | 1.10902 | 34224 ft | 452 kts | 316° |
| 2026-05-01 08:16 | 50.53112 | 1.04397 | 34217 ft | 453 kts | 318° |
| 2026-05-01 08:16 | 50.58080 | 0.98178 | 34219 ft | 454 kts | 320° |
| 2026-05-01 08:17 | 50.63030 | 0.92237 | 34224 ft | 454 kts | 320° |
| 2026-05-01 08:17 | 50.68053 | 0.86093 | 34223 ft | 454 kts | 320° |
| 2026-05-01 08:18 | 50.72999 | 0.79894 | 34230 ft | 454 kts | 319° |
| 2026-05-01 08:19 | 50.82882 | 0.67463 | 34235 ft | 454 kts | 319° |
| 2026-05-01 08:19 | 50.87837 | 0.61238 | 34230 ft | 455 kts | 319° |
| 2026-05-01 08:20 | 50.92785 | 0.54991 | 34227 ft | 455 kts | 319° |
| 2026-05-01 08:20 | 50.97731 | 0.48735 | 34166 ft | 455 kts | 319° |
| 2026-05-01 08:21 | 51.02712 | 0.42410 | 34150 ft | 455 kts | 319° |
| 2026-05-01 08:21 | 51.04367 | 0.40300 | 34144 ft | 455 kts | 317° |
| 2026-05-01 08:22 | 51.09157 | 0.34105 | 34132 ft | 455 kts | 319° |
| 2026-05-01 08:22 | 51.14124 | 0.27852 | 34134 ft | 455 kts | 319° |
| 2026-05-01 08:23 | 51.19080 | 0.21576 | 34147 ft | 455 kts | 319° |
| 2026-05-01 08:23 | 51.24045 | 0.15195 | 34219 ft | 455 kts | 318° |
| 2026-05-01 08:23 | 51.26489 | 0.12031 | 34003 ft | 451 kts | 318° |
| 2026-05-01 08:24 | 51.28904 | 0.08894 | 33727 ft | 446 kts | 317° |
| 2026-05-01 08:24 | 51.31092 | 0.05415 | 33454 ft | 439 kts | 306° |
| 2026-05-01 08:24 | 51.32822 | 0.01451 | 33193 ft | 433 kts | 295° |
| 2026-05-01 08:24 | 51.34081 | -0.02870 | 32917 ft | 426 kts | 285° |
| 2026-05-01 08:25 | 51.34910 | -0.07389 | 32647 ft | 422 kts | 280° |
| 2026-05-01 08:25 | 51.35670 | -0.11925 | 32399 ft | 421 kts | 281° |
| 2026-05-01 08:25 | 51.36430 | -0.16429 | 32145 ft | 419 kts | 281° |
| 2026-05-01 08:25 | 51.37192 | -0.20927 | 31881 ft | 418 kts | 281° |
| 2026-05-01 08:26 | 51.37960 | -0.25464 | 31619 ft | 414 kts | 281° |
| 2026-05-01 08:26 | 51.38704 | -0.29896 | 31187 ft | 410 kts | 281° |
| 2026-05-01 08:26 | 51.39210 | -0.32940 | 30878 ft | 408 kts | 280° |
| 2026-05-01 08:26 | 51.39935 | -0.37324 | 30442 ft | 405 kts | 280° |
| 2026-05-01 08:27 | 51.40654 | -0.41680 | 29964 ft | 402 kts | 280° |
| 2026-05-01 08:27 | 51.41361 | -0.45982 | 29548 ft | 397 kts | 280° |
| 2026-05-01 08:27 | 51.42061 | -0.50249 | 29134 ft | 393 kts | 280° |
| 2026-05-01 08:27 | 51.42749 | -0.54444 | 28729 ft | 388 kts | 280° |
| 2026-05-01 08:28 | 51.43429 | -0.58610 | 28334 ft | 384 kts | 280° |
| 2026-05-01 08:28 | 51.44099 | -0.62732 | 27914 ft | 381 kts | 280° |
| 2026-05-01 08:28 | 51.44762 | -0.66812 | 27524 ft | 376 kts | 280° |
| 2026-05-01 08:28 | 51.45429 | -0.70910 | 27131 ft | 373 kts | 280° |
| 2026-05-01 08:29 | 51.46082 | -0.74921 | 26714 ft | 370 kts | 281° |
| 2026-05-01 08:29 | 51.46729 | -0.78915 | 26299 ft | 368 kts | 280° |
| 2026-05-01 08:29 | 51.47370 | -0.82873 | 25889 ft | 366 kts | 280° |
| 2026-05-01 08:29 | 51.48005 | -0.86818 | 25472 ft | 364 kts | 280° |
| 2026-05-01 08:30 | 51.48635 | -0.90740 | 25045 ft | 363 kts | 280° |
| 2026-05-01 08:30 | 51.49270 | -0.94709 | 24613 ft | 363 kts | 280° |
| 2026-05-01 08:30 | 51.49897 | -0.98634 | 24178 ft | 362 kts | 280° |
| 2026-05-01 08:30 | 51.50520 | -1.02547 | 23731 ft | 362 kts | 280° |
| 2026-05-01 08:31 | 51.51142 | -1.06464 | 23253 ft | 361 kts | 280° |
| 2026-05-01 08:31 | 51.51767 | -1.10412 | 22818 ft | 359 kts | 280° |
| 2026-05-01 08:31 | 51.52380 | -1.14295 | 22403 ft | 357 kts | 280° |
| 2026-05-01 08:31 | 51.52971 | -1.18162 | 21975 ft | 357 kts | 278° |
| 2026-05-01 08:32 | 51.53488 | -1.22118 | 21550 ft | 357 kts | 277° |
| 2026-05-01 08:32 | 51.53945 | -1.26032 | 21131 ft | 356 kts | 276° |
| 2026-05-01 08:32 | 51.54377 | -1.29938 | 20715 ft | 354 kts | 276° |
| 2026-05-01 08:32 | 51.54806 | -1.33825 | 20302 ft | 353 kts | 276° |
| 2026-05-01 08:33 | 51.55241 | -1.37699 | 19891 ft | 352 kts | 276° |
| 2026-05-01 08:33 | 51.55687 | -1.41598 | 19476 ft | 351 kts | 276° |
| 2026-05-01 08:33 | 51.56134 | -1.45445 | 19065 ft | 350 kts | 276° |
| 2026-05-01 08:33 | 51.56582 | -1.49285 | 18663 ft | 349 kts | 276° |
| 2026-05-01 08:34 | 51.57028 | -1.53103 | 18220 ft | 348 kts | 276° |
| 2026-05-01 08:34 | 51.57473 | -1.56928 | 17803 ft | 346 kts | 276° |
| 2026-05-01 08:34 | 51.57912 | -1.60725 | 17386 ft | 344 kts | 276° |
| 2026-05-01 08:34 | 51.58349 | -1.64497 | 16987 ft | 343 kts | 276° |
| 2026-05-01 08:35 | 51.58739 | -1.68264 | 16584 ft | 341 kts | 274° |
| 2026-05-01 08:35 | 51.59044 | -1.72030 | 16176 ft | 339 kts | 272° |
| 2026-05-01 08:35 | 51.59303 | -1.75837 | 15778 ft | 338 kts | 271° |
| 2026-05-01 08:35 | 51.59545 | -1.79599 | 15377 ft | 337 kts | 272° |
| 2026-05-01 08:36 | 51.59789 | -1.83343 | 14979 ft | 337 kts | 272° |
| 2026-05-01 08:36 | 51.59862 | -1.87079 | 14585 ft | 331 kts | 260° |
| 2026-05-01 08:36 | 51.59398 | -1.90581 | 14245 ft | 323 kts | 246° |
| 2026-05-01 08:36 | 51.58443 | -1.93747 | 14124 ft | 308 kts | 233° |
| 2026-05-01 08:37 | 51.57296 | -1.96627 | 13852 ft | 304 kts | 233° |
| 2026-05-01 08:37 | 51.56155 | -1.99483 | 13515 ft | 302 kts | 233° |
| 2026-05-01 08:37 | 51.55010 | -2.02342 | 13167 ft | 299 kts | 233° |
| 2026-05-01 08:37 | 51.53892 | -2.05139 | 12570 ft | 296 kts | 233° |
| 2026-05-01 08:38 | 51.53161 | -2.06976 | 12207 ft | 294 kts | 234° |
| 2026-05-01 08:38 | 51.52294 | -2.09939 | 11775 ft | 293 kts | 246° |
| 2026-05-01 08:38 | 51.51611 | -2.13012 | 11450 ft | 292 kts | 246° |
| 2026-05-01 08:38 | 51.50911 | -2.16110 | 11094 ft | 291 kts | 245° |
| 2026-05-01 08:39 | 51.50262 | -2.19171 | 10747 ft | 292 kts | 253° |
| 2026-05-01 08:39 | 51.49937 | -2.22384 | 10466 ft | 290 kts | 258° |
| 2026-05-01 08:39 | 51.49690 | -2.25590 | 10153 ft | 288 kts | 258° |
| 2026-05-01 08:39 | 51.49456 | -2.28776 | 9807 ft | 287 kts | 258° |
| 2026-05-01 08:40 | 51.48992 | -2.35087 | 8897 ft | 282 kts | 258° |
| 2026-05-01 08:40 | 51.48755 | -2.38252 | 8269 ft | 281 kts | 258° |
| 2026-05-01 08:40 | 51.48521 | -2.41336 | 7799 ft | 273 kts | 258° |
| 2026-05-01 08:41 | 51.48295 | -2.44318 | 7326 ft | 268 kts | 258° |
| 2026-05-01 08:41 | 51.48070 | -2.47268 | 6773 ft | 266 kts | 258° |
| 2026-05-01 08:41 | 51.47821 | -2.50187 | 6219 ft | 263 kts | 257° |
| 2026-05-01 08:41 | 51.47535 | -2.53072 | 5724 ft | 262 kts | 256° |
| 2026-05-01 08:42 | 51.47243 | -2.55982 | 5389 ft | 259 kts | 256° |
| 2026-05-01 08:42 | 51.46961 | -2.58820 | 5081 ft | 257 kts | 256° |
| 2026-05-01 08:42 | 51.46680 | -2.61670 | 4745 ft | 255 kts | 256° |
| 2026-05-01 08:42 | 51.46385 | -2.64456 | 4371 ft | 252 kts | 255° |
| 2026-05-01 08:43 | 51.46019 | -2.67197 | 4005 ft | 250 kts | 253° |
| 2026-05-01 08:43 | 51.45638 | -2.69904 | 3639 ft | 248 kts | 253° |
| 2026-05-01 08:43 | 51.45244 | -2.72598 | 3423 ft | 241 kts | 253° |
| 2026-05-01 08:43 | 51.44866 | -2.75155 | 3260 ft | 231 kts | 253° |
| 2026-05-01 08:44 | 51.44494 | -2.77632 | 3114 ft | 227 kts | 253° |
| 2026-05-01 08:44 | 51.44119 | -2.80086 | 2999 ft | 226 kts | 253° |
| 2026-05-01 08:44 | 51.43734 | -2.82560 | 2921 ft | 226 kts | 253° |
| 2026-05-01 08:44 | 51.43349 | -2.84998 | 2848 ft | 225 kts | 253° |
| 2026-05-01 08:45 | 51.42961 | -2.87428 | 2775 ft | 225 kts | 253° |
| 2026-05-01 08:45 | 51.42569 | -2.89849 | 2700 ft | 225 kts | 253° |
| 2026-05-01 08:45 | 51.42170 | -2.92268 | 2595 ft | 224 kts | 253° |
| 2026-05-01 08:45 | 51.41768 | -2.94675 | 2506 ft | 223 kts | 253° |
| 2026-05-01 08:46 | 51.41107 | -2.96823 | 2511 ft | 209 kts | 221° |
| 2026-05-01 08:46 | 51.39824 | -2.97647 | 2508 ft | 196 kts | 180° |
| 2026-05-01 08:46 | 51.38536 | -2.97107 | 2514 ft | 194 kts | 149° |
| 2026-05-01 08:46 | 51.37625 | -2.95542 | 2511 ft | 196 kts | 117° |
| 2026-05-01 08:47 | 51.37392 | -2.93402 | 2515 ft | 199 kts | 89° |
| 2026-05-01 08:47 | 51.37485 | -2.91229 | 2537 ft | 193 kts | 88° |
| 2026-05-01 08:47 | 51.37579 | -2.89103 | 2503 ft | 191 kts | 88° |
| 2026-05-01 08:47 | 51.37666 | -2.87009 | 2311 ft | 186 kts | 88° |
| 2026-05-01 08:48 | 51.37749 | -2.84965 | 2091 ft | 183 kts | 88° |
| 2026-05-01 08:48 | 51.37830 | -2.82962 | 1868 ft | 176 kts | 88° |
| 2026-05-01 08:48 | 51.37906 | -2.81059 | 1638 ft | 164 kts | 87° |
| 2026-05-01 08:48 | 51.37976 | -2.79300 | 1385 ft | 152 kts | 87° |
| 2026-05-01 08:49 | 51.38043 | -2.77654 | 1187 ft | 145 kts | 87° |
| 2026-05-01 08:49 | 51.38101 | -2.76066 | 1011 ft | 142 kts | 87° |
| 2026-05-01 08:49 | 51.38168 | -2.74509 | 819 ft | 140 kts | 87° |
| 2026-05-01 08:49 | 51.38227 | -2.72966 | 631 ft | 138 kts | 87° |
| 2026-05-01 08:50 | 51.38273 | -2.71535 | 718 ft | 135 kts | 87° |
| 2026-05-01 08:50 | 51.38317 | -2.69947 | 1395 ft | 149 kts | 90° |
| 2026-05-01 08:50 | 51.38308 | -2.68245 | 1991 ft | 160 kts | 92° |
| 2026-05-01 08:50 | 51.38338 | -2.66291 | 2289 ft | 186 kts | 90° |
| 2026-05-01 08:51 | 51.38399 | -2.64092 | 2627 ft | 209 kts | 89° |
| 2026-05-01 08:51 | 51.38471 | -2.61660 | 3012 ft | 227 kts | 89° |
| 2026-05-01 08:51 | 51.38890 | -2.59242 | 3015 ft | 229 kts | 59° |
| 2026-05-01 08:51 | 51.40068 | -2.57556 | 3008 ft | 231 kts | 24° |
| 2026-05-01 08:52 | 51.41633 | -2.57002 | 3011 ft | 233 kts | 4° |
| 2026-05-01 08:52 | 51.43238 | -2.57133 | 3009 ft | 231 kts | 339° |
| 2026-05-01 08:52 | 51.44542 | -2.58523 | 3013 ft | 225 kts | 304° |
| 2026-05-01 08:52 | 51.45195 | -2.60748 | 3014 ft | 221 kts | 278° |
| 2026-05-01 08:53 | 51.45412 | -2.63179 | 3010 ft | 220 kts | 272° |
| 2026-05-01 08:53 | 51.45551 | -2.65622 | 3011 ft | 220 kts | 271° |
| 2026-05-01 08:53 | 51.45585 | -2.68087 | 3010 ft | 217 kts | 261° |
| 2026-05-01 08:53 | 51.45362 | -2.70483 | 3011 ft | 217 kts | 257° |
| 2026-05-01 08:54 | 51.45093 | -2.72862 | 3008 ft | 217 kts | 256° |
| 2026-05-01 08:54 | 51.44788 | -2.75229 | 3009 ft | 216 kts | 254° |
| 2026-05-01 08:54 | 51.44423 | -2.77567 | 3012 ft | 216 kts | 252° |
| 2026-05-01 08:54 | 51.44038 | -2.79898 | 3010 ft | 216 kts | 252° |
| 2026-05-01 08:55 | 51.43650 | -2.82229 | 3009 ft | 216 kts | 252° |
| 2026-05-01 08:55 | 51.43261 | -2.84557 | 3014 ft | 217 kts | 252° |
| 2026-05-01 08:55 | 51.42872 | -2.86885 | 3011 ft | 217 kts | 252° |
| 2026-05-01 08:55 | 51.42483 | -2.89213 | 3008 ft | 216 kts | 252° |
| 2026-05-01 08:56 | 51.42092 | -2.91542 | 3009 ft | 216 kts | 252° |
| 2026-05-01 08:56 | 51.41700 | -2.93872 | 3008 ft | 217 kts | 252° |
| 2026-05-01 08:56 | 51.41181 | -2.96108 | 3008 ft | 213 kts | 231° |
| 2026-05-01 08:56 | 51.40002 | -2.97357 | 2887 ft | 203 kts | 189° |
| 2026-05-01 08:57 | 51.38645 | -2.97109 | 2760 ft | 197 kts | 155° |
| 2026-05-01 08:57 | 51.37657 | -2.95657 | 2629 ft | 196 kts | 119° |
| 2026-05-01 08:57 | 51.37386 | -2.93538 | 2544 ft | 198 kts | 89° |
| 2026-05-01 08:57 | 51.37480 | -2.91346 | 2520 ft | 190 kts | 88° |
| 2026-05-01 08:58 | 51.37573 | -2.89256 | 2498 ft | 189 kts | 88° |
| 2026-05-01 08:58 | 51.37631 | -2.87861 | 2390 ft | 184 kts | 88° |
| 2026-05-01 08:58 | 51.37742 | -2.85154 | 2110 ft | 181 kts | 88° |
| 2026-05-01 08:58 | 51.37795 | -2.83837 | 1947 ft | 176 kts | 87° |
| 2026-05-01 08:59 | 51.37871 | -2.81934 | 1723 ft | 167 kts | 88° |
| 2026-05-01 08:59 | 51.37965 | -2.79595 | 1457 ft | 149 kts | 87° |
| 2026-05-01 08:59 | 51.38030 | -2.77966 | 1227 ft | 144 kts | 88° |
| 2026-05-01 08:59 | 51.38093 | -2.76375 | 1026 ft | 142 kts | 87° |
| 2026-05-01 09:00 | 51.38156 | -2.74797 | 834 ft | 142 kts | 88° |
| 2026-05-01 09:00 | 51.38217 | -2.73231 | 669 ft | 141 kts | 88° |
| 2026-05-01 09:00 | 51.38267 | -2.71819 | 629 ft | 96 kts | 86° |
| 2026-05-01 09:00 | 51.38293 | -2.71213 | 602 ft | 29 kts | 86° |
| 2026-05-01 09:01 | 51.38306 | -2.70923 | 603 ft | 20 kts | 86° |
| 2026-05-01 09:01 | 51.38316 | -2.70788 | 611 ft | 8 kts | 63° |
| 2026-05-01 09:01 | 51.38353 | -2.70754 | 610 ft | 4 kts | 20° |
| 2026-05-01 09:01 | 51.38360 | -2.70750 | 615 ft | 0 kts | 19° |
| 2026-05-01 09:02 | 51.38364 | -2.70748 | 617 ft | 2 kts | 19° |
| 2026-05-01 09:02 | 51.38373 | -2.70743 | 617 ft | 4 kts | 19° |
| 2026-05-01 09:03 | 51.38400 | -2.70727 | 610 ft | 4 kts | 20° |
| 2026-05-01 09:03 | 51.38432 | -2.70710 | 611 ft | 4 kts | 14° |
| 2026-05-01 09:03 | 51.38454 | -2.70715 | 611 ft | 2 kts | 339° |
| 2026-05-01 09:03 | 51.38467 | -2.70738 | 625 ft | 5 kts | 301° |
| 2026-05-01 09:04 | 51.38469 | -2.70796 | 623 ft | 8 kts | 268° |
| 2026-05-01 09:04 | 51.38486 | -2.70836 | 621 ft | 3 kts | 349° |
| 2026-05-01 09:04 | 51.38518 | -2.70833 | 610 ft | 6 kts | 1° |
| 2026-05-01 09:04 | 51.38551 | -2.70836 | 609 ft | 2 kts | 356° |
| 2026-05-01 09:05 | 51.38566 | -2.70852 | 608 ft | 2 kts | 303° |
| 2026-05-01 09:05 | 51.38567 | -2.70866 | 625 ft | 0 kts | 276° |
| 2026-05-01 09:05 | 51.38566 | -2.70875 | 625 ft | 3 kts | 268° |
| 2026-05-01 09:05 | 51.38565 | -2.70890 | 610 ft | 1 kts | 264° |
| 2026-05-01 09:06 | 51.38564 | -2.70906 | 621 ft | 0 kts | 265° |
| 2026-05-01 09:06 | 51.38564 | -2.70908 | 620 ft | 2 kts | 265° |
| 2026-05-01 09:06 | 51.38564 | -2.70913 | 618 ft | 0 kts | 265° |